Time;durP1;ratioP1;P1;durP2;ratioP2;P2;SDS_P1;SDS_P2;PMS_P1;PMS_P2;Temp;Humidity;BMP_temperature;BMP_pressure;BME280_temperature;BME280_humidity;BME280_pressure;Samples;Min_cycle;Max_cycle;Signal;HPM_P1;HPM_P2
2021/08/19 00:01:38;;;;;;;7.78;4.18;;;;;;;13.60;100.00;99936.81;4956456;29;20472;-81
2021/08/19 00:04:03;;;;;;;11.20;5.05;;;;;;;13.58;100.00;99929.06;4957855;28;20034;-81
2021/08/19 00:06:28;;;;;;;12.32;5.05;;;;;;;13.57;100.00;99931.72;4957614;28;20484;-81
2021/08/19 00:08:54;;;;;;;8.40;5.25;;;;;;;13.53;100.00;99928.41;4956454;28;20027;-81
2021/08/19 00:11:19;;;;;;;10.65;4.85;;;;;;;13.55;100.00;99937.00;4956193;29;20399;-81
2021/08/19 00:13:44;;;;;;;11.10;4.45;;;;;;;13.52;100.00;99916.28;4958079;28;20086;-81
2021/08/19 00:16:10;;;;;;;12.30;5.05;;;;;;;13.50;100.00;99930.28;4956384;29;20030;-81
2021/08/19 00:18:36;;;;;;;9.52;4.75;;;;;;;13.44;100.00;99928.75;4957408;28;20027;-81
2021/08/19 00:21:02;;;;;;;10.73;6.22;;;;;;;13.39;100.00;99928.09;4956180;29;20051;-81
2021/08/19 00:23:27;;;;;;;9.30;5.43;;;;;;;13.38;100.00;99931.63;4956208;29;20377;-81
2021/08/19 00:25:52;;;;;;;12.93;5.50;;;;;;;13.35;100.00;99934.34;4956089;29;20031;-81
2021/08/19 00:28:18;;;;;;;13.02;5.63;;;;;;;13.33;100.00;99928.34;4957274;28;20143;-80
2021/08/19 00:30:43;;;;;;;14.90;5.88;;;;;;;13.29;100.00;99934.59;4957157;28;20027;-81
2021/08/19 00:33:10;;;;;;;10.18;5.63;;;;;;;13.24;100.00;99929.53;4957116;28;20023;-81
2021/08/19 00:35:35;;;;;;;8.40;5.30;;;;;;;13.19;100.00;99925.41;4956353;29;20022;-81
2021/08/19 00:38:01;;;;;;;10.18;5.63;;;;;;;13.21;100.00;99937.47;4955814;28;20539;-81
2021/08/19 00:40:26;;;;;;;10.30;5.97;;;;;;;13.20;100.00;99933.16;4955826;29;20074;-81
2021/08/19 00:42:51;;;;;;;10.98;5.93;;;;;;;13.17;100.00;99929.81;4956957;29;20440;-81
2021/08/19 00:45:18;;;;;;;10.60;5.70;;;;;;;13.11;100.00;99931.75;4957198;28;20481;-81
2021/08/19 00:47:44;;;;;;;9.52;5.15;;;;;;;13.09;100.00;99920.56;4956899;28;20058;-81
2021/08/19 00:50:09;;;;;;;12.35;5.78;;;;;;;13.11;100.00;99934.34;4955175;29;20046;-81
2021/08/19 00:52:36;;;;;;;12.90;6.50;;;;;;;13.11;100.00;99926.53;4955728;29;20027;-81
2021/08/19 00:55:03;;;;;;;10.18;5.47;;;;;;;13.17;100.00;99927.22;4955511;29;20019;-81
2021/08/19 00:57:28;;;;;;;11.45;5.65;;;;;;;13.20;100.00;99925.34;4956471;28;20027;-81
2021/08/19 00:59:54;;;;;;;9.43;6.15;;;;;;;13.22;100.00;99933.09;4955526;29;20114;-81
2021/08/19 01:02:22;;;;;;;15.60;6.25;;;;;;;13.26;100.00;99927.72;4955366;29;20110;-81
2021/08/19 01:04:48;;;;;;;13.10;5.45;;;;;;;13.22;100.00;99930.50;4955381;29;20018;-81
2021/08/19 01:07:15;;;;;;;10.65;5.32;;;;;;;13.13;100.00;99929.09;4956383;28;20090;-81
2021/08/19 01:09:41;;;;;;;10.35;5.20;;;;;;;13.11;100.00;99916.13;4955356;29;20477;-81
2021/08/19 01:12:09;;;;;;;10.57;5.13;;;;;;;13.18;100.00;99921.09;4956357;28;20085;-81
2021/08/19 01:14:35;;;;;;;8.85;4.85;;;;;;;13.25;100.00;99917.41;4955490;29;20041;-81
2021/08/19 01:17:14;;;;;;;9.13;4.63;;;;;;;13.28;100.00;99930.28;4955101;29;20448;-81
2021/08/19 01:19:40;;;;;;;12.07;5.53;;;;;;;13.31;100.00;99928.41;4956624;28;20023;-81
2021/08/19 01:22:06;;;;;;;10.32;4.95;;;;;;;13.34;100.00;99936.09;4956247;28;20102;-81
2021/08/19 01:24:32;;;;;;;10.63;5.03;;;;;;;13.30;100.00;99936.28;4955018;29;20496;-81
2021/08/19 01:26:58;;;;;;;11.68;5.05;;;;;;;13.23;100.00;99938.25;4956412;28;20027;-81
2021/08/19 01:29:23;;;;;;;12.68;5.45;;;;;;;13.18;100.00;99937.59;4956117;28;20031;-81
2021/08/19 01:32:00;;;;;;;11.40;4.43;;;;;;;13.17;100.00;99945.44;4956411;28;20117;-81
2021/08/19 01:34:26;;;;;;;9.05;4.97;;;;;;;13.22;100.00;99936.56;4954889;29;20038;-81
2021/08/19 01:36:51;;;;;;;9.52;4.97;;;;;;;13.32;100.00;99950.09;4954831;29;20066;-80
2021/08/19 01:39:16;;;;;;;9.88;4.60;;;;;;;13.32;100.00;99942.28;4954777;28;20162;-81
2021/08/19 01:41:41;;;;;;;11.18;5.15;;;;;;;13.34;100.00;99945.69;4956428;28;20023;-81
2021/08/19 01:44:07;;;;;;;8.15;4.43;;;;;;;13.36;100.00;99946.44;4954763;29;20027;-81
2021/08/19 01:46:32;;;;;;;12.38;5.00;;;;;;;13.35;100.00;99935.19;4954827;29;20485;-81
2021/08/19 01:48:57;;;;;;;8.75;4.63;;;;;;;13.34;100.00;99936.09;4954572;28;20023;-81
2021/08/19 01:51:22;;;;;;;10.20;5.22;;;;;;;13.36;100.00;99930.81;4954436;29;20039;-81
2021/08/19 01:53:51;;;;;;;8.15;5.03;;;;;;;13.35;100.00;99931.75;4955769;28;20551;-81
2021/08/19 01:56:20;;;;;;;8.35;5.40;;;;;;;13.35;100.00;99929.13;4954432;29;20057;-81
2021/08/19 01:58:47;;;;;;;10.20;6.13;;;;;;;13.32;100.00;99935.31;4955436;28;20121;-81
2021/08/19 02:01:18;;;;;;;9.38;5.68;;;;;;;13.30;100.00;99928.47;4955836;28;20031;-81
2021/08/19 02:03:43;;;;;;;8.73;5.78;;;;;;;13.26;100.00;99927.72;4954597;29;20456;-81
2021/08/19 02:06:08;;;;;;;10.07;5.90;;;;;;;13.28;100.00;99925.94;4954617;29;20058;-80
2021/08/19 02:08:33;;;;;;;10.85;6.07;;;;;;;13.31;100.00;99938.00;4954438;28;20030;-81
2021/08/19 02:10:59;;;;;;;10.30;5.60;;;;;;;13.29;100.00;99929.38;4955657;28;20019;-81
2021/08/19 02:13:24;;;;;;;11.02;6.18;;;;;;;13.35;100.00;99934.34;4954572;29;20061;-81
2021/08/19 02:15:49;;;;;;;12.55;6.85;;;;;;;13.37;100.00;99936.91;4954478;29;20038;-81
2021/08/19 02:18:14;;;;;;;11.40;6.07;;;;;;;13.37;100.00;99929.94;4954499;28;20094;-81
2021/08/19 02:20:40;;;;;;;15.60;7.15;;;;;;;13.36;100.00;99946.44;4954118;29;20127;-81
2021/08/19 02:23:05;;;;;;;12.98;7.10;;;;;;;13.34;100.00;99937.88;4954853;29;20072;-81
2021/08/19 02:25:31;;;;;;;9.27;6.45;;;;;;;13.34;100.00;99933.50;4954316;29;20023;-81
2021/08/19 02:27:56;;;;;;;11.05;6.82;;;;;;;13.36;100.00;99938.63;4955686;28;20034;-81
2021/08/19 02:30:22;;;;;;;12.43;6.65;;;;;;;13.38;100.00;99935.97;4955392;28;20078;-81
2021/08/19 02:32:53;;;;;;;11.15;6.82;;;;;;;13.37;100.00;99937.75;4954073;29;20028;-81
2021/08/19 02:35:19;;;;;;;15.40;7.68;;;;;;;13.35;100.00;99945.59;4955183;28;20027;-80
2021/08/19 02:37:45;;;;;;;14.15;7.53;;;;;;;13.35;100.00;99939.56;4954286;28;20023;-81
2021/08/19 02:40:11;;;;;;;11.38;7.45;;;;;;;13.36;100.00;99946.44;4954384;29;20481;-81
2021/08/19 02:42:36;;;;;;;11.10;6.90;;;;;;;13.37;100.00;99945.56;4955404;28;20407;-81
2021/08/19 02:45:02;;;;;;;9.40;7.05;;;;;;;13.40;100.00;99947.19;4954058;29;20506;-81
2021/08/19 02:47:27;;;;;;;13.80;6.53;;;;;;;13.36;100.00;99951.66;4955360;28;20038;-81
2021/08/19 02:49:52;;;;;;;14.10;6.80;;;;;;;13.33;100.00;99946.56;4955204;28;20031;-81
2021/08/19 02:52:18;;;;;;;10.35;7.07;;;;;;;13.38;100.00;99949.00;4953945;29;20110;-81
2021/08/19 02:54:43;;;;;;;11.48;6.43;;;;;;;13.36;100.00;99943.84;4955251;28;20023;-81
2021/08/19 02:57:08;;;;;;;12.35;6.63;;;;;;;13.35;100.00;99952.56;4953880;29;20024;-81
2021/08/19 02:59:34;;;;;;;12.95;6.45;;;;;;;13.34;100.00;99948.28;4954993;28;20365;-81
2021/08/19 03:01:59;;;;;;;11.20;6.50;;;;;;;13.37;100.00;99950.78;4953850;29;20031;-80
2021/08/19 03:04:24;;;;;;;12.23;6.53;;;;;;;13.35;100.00;99945.59;4955552;28;20078;-80
2021/08/19 03:06:49;;;;;;;12.55;6.60;;;;;;;13.35;100.00;99947.38;4954901;28;20039;-80
2021/08/19 03:09:14;;;;;;;12.15;6.38;;;;;;;13.32;100.00;99945.72;4955224;28;20020;-80
2021/08/19 03:11:40;;;;;;;10.68;6.53;;;;;;;13.33;100.00;99931.81;4954739;28;20058;-80
2021/08/19 03:14:05;;;;;;;12.50;6.53;;;;;;;13.40;100.00;99944.59;4957682;29;20023;-81
2021/08/19 03:16:31;;;;;;;11.95;6.28;;;;;;;13.38;100.00;99942.03;4958722;28;20031;-81
2021/08/19 03:18:56;;;;;;;11.23;5.82;;;;;;;13.41;100.00;99938.47;4957477;28;20019;-81
2021/08/19 03:21:21;;;;;;;9.95;5.30;;;;;;;13.36;100.00;99946.44;4958667;28;20201;-81
2021/08/19 03:23:50;;;;;;;10.52;6.22;;;;;;;13.38;100.00;99943.81;4957796;29;20023;-81
2021/08/19 03:26:15;;;;;;;9.52;5.55;;;;;;;13.35;100.00;99942.16;4957763;29;20080;-81
2021/08/19 03:28:43;;;;;;;12.25;6.13;;;;;;;13.27;100.00;99942.47;4957329;28;20440;-81
2021/08/19 03:31:08;;;;;;;10.60;6.13;;;;;;;13.23;100.00;99943.44;4957786;29;20078;-81
2021/08/19 03:33:34;;;;;;;12.93;6.15;;;;;;;13.21;100.00;99947.00;4957504;29;20113;-81
2021/08/19 03:35:59;;;;;;;12.43;6.32;;;;;;;13.16;100.00;99951.56;4957449;29;20451;-81
2021/08/19 03:38:26;;;;;;;13.75;6.90;;;;;;;13.07;100.00;99953.63;4958139;28;20019;-81
2021/08/19 03:40:51;;;;;;;11.00;6.55;;;;;;;12.97;100.00;99952.28;4957537;29;20492;-81
2021/08/19 03:43:16;;;;;;;12.23;7.07;;;;;;;12.95;100.00;99961.88;4958947;28;20106;-81
2021/08/19 03:45:41;;;;;;;10.25;6.70;;;;;;;12.94;100.00;99960.19;4958554;28;20022;-81
2021/08/19 03:48:07;;;;;;;13.32;7.72;;;;;;;12.94;100.00;99962.81;4957460;28;20055;-81
2021/08/19 03:50:34;;;;;;;14.88;7.75;;;;;;;12.94;100.00;99960.19;4956906;29;20043;-81
2021/08/19 03:52:59;;;;;;;12.85;7.75;;;;;;;12.88;100.00;99961.28;4958586;28;20026;-81
2021/08/19 03:55:25;;;;;;;13.27;7.18;;;;;;;12.87;100.00;99956.97;4957263;29;20031;-81
2021/08/19 03:57:50;;;;;;;11.93;7.50;;;;;;;12.90;100.00;99964.69;4957087;28;20369;-81
2021/08/19 04:00:16;;;;;;;12.45;8.50;;;;;;;12.88;100.00;99974.28;4956991;29;20023;-81
2021/08/19 04:02:43;;;;;;;12.48;8.13;;;;;;;12.84;100.00;99970.09;4956712;29;20059;-81
2021/08/19 04:05:09;;;;;;;12.63;7.85;;;;;;;12.82;100.00;99973.66;4958134;28;20023;-81
2021/08/19 04:07:34;;;;;;;13.57;7.80;;;;;;;12.84;100.00;99977.91;4957951;28;20476;-81
2021/08/19 04:09:59;;;;;;;17.83;7.65;;;;;;;12.83;100.00;99975.34;4957953;28;20046;-81
2021/08/19 04:12:24;;;;;;;12.98;7.18;;;;;;;12.87;100.00;99975.19;4957434;28;20499;-81
2021/08/19 04:14:50;;;;;;;10.55;6.80;;;;;;;12.89;100.00;99978.56;4956411;29;20055;-81
2021/08/19 04:17:15;;;;;;;14.15;7.30;;;;;;;12.89;100.00;99977.72;4956368;28;20027;-81
2021/08/19 04:19:40;;;;;;;13.00;7.03;;;;;;;12.82;100.00;99976.28;4957214;29;20046;-81
2021/08/19 04:22:07;;;;;;;14.98;7.72;;;;;;;12.84;100.00;99979.69;4956453;29;20483;-81
2021/08/19 04:24:32;;;;;;;15.23;6.78;;;;;;;12.78;100.00;99975.53;4955864;28;20082;-81
2021/08/19 04:26:58;;;;;;;11.35;6.25;;;;;;;12.79;100.00;99974.63;4956312;29;20436;-81
2021/08/19 04:29:23;;;;;;;8.73;5.70;;;;;;;12.77;100.00;99978.19;4957235;28;20031;-81
2021/08/19 04:31:48;;;;;;;10.02;5.63;;;;;;;12.77;100.00;99975.59;4955946;29;20030;-81
2021/08/19 04:34:13;;;;;;;10.32;5.90;;;;;;;12.80;100.00;99970.25;4955990;29;20023;-81
2021/08/19 04:36:39;;;;;;;8.30;5.50;;;;;;;12.81;100.00;99964.19;4959213;28;20477;-81
2021/08/19 04:39:05;;;;;;;9.60;5.78;;;;;;;12.86;100.00;99970.88;4957932;28;20034;-81
2021/08/19 04:41:30;;;;;;;11.40;6.53;;;;;;;12.92;100.00;99977.63;4957597;28;20035;-81
2021/08/19 04:43:56;;;;;;;11.13;6.30;;;;;;;12.96;100.00;99975.75;4956788;29;20024;-81
2021/08/19 04:46:21;;;;;;;9.32;6.35;;;;;;;13.01;100.00;99977.28;4955831;29;20086;-81
2021/08/19 04:48:46;;;;;;;11.57;6.88;;;;;;;13.04;100.00;99973.72;4957104;28;20042;-81
2021/08/19 04:51:11;;;;;;;11.90;6.60;;;;;;;13.08;100.00;99975.28;4957735;28;20031;-81
2021/08/19 04:53:37;;;;;;;10.05;6.65;;;;;;;13.09;100.00;99982.22;4958515;29;20039;-81
2021/08/19 04:56:02;;;;;;;12.70;7.07;;;;;;;13.08;100.00;99976.16;4956892;29;20024;-80
2021/08/19 04:58:28;;;;;;;10.80;7.43;;;;;;;13.12;100.00;99976.88;4981870;22;20126;-79
2021/08/19 05:00:54;;;;;;;14.70;7.15;;;;;;;13.11;100.00;99981.22;4957532;29;20555;-79
2021/08/19 05:03:19;;;;;;;9.48;6.50;;;;;;;13.06;100.00;99970.16;4957837;29;20049;-79
2021/08/19 05:05:45;;;;;;;13.00;6.88;;;;;;;13.13;100.00;99978.56;4958849;28;20548;-79
2021/08/19 05:08:10;;;;;;;11.80;6.55;;;;;;;13.19;100.00;99973.13;4959214;28;20037;-79
2021/08/19 05:10:35;;;;;;;13.15;6.65;;;;;;;13.10;100.00;99976.94;4957173;29;20064;-79
2021/08/19 05:13:00;;;;;;;11.68;6.80;;;;;;;13.12;100.00;99977.72;4958657;28;20032;-79
2021/08/19 05:15:26;;;;;;;12.80;6.57;;;;;;;13.18;100.00;99975.78;4958311;28;20027;-79
2021/08/19 05:17:51;;;;;;;13.43;6.85;;;;;;;13.23;100.00;99976.47;4957249;28;20543;-79
2021/08/19 05:20:16;;;;;;;11.95;7.20;;;;;;;13.22;100.00;99975.63;4956814;29;20023;-79
2021/08/19 05:22:42;;;;;;;11.98;6.97;;;;;;;13.28;100.00;99982.38;4956751;28;20046;-79
2021/08/19 05:25:08;;;;;;;10.40;6.43;;;;;;;13.27;100.00;99981.53;4958231;28;20038;-79
2021/08/19 05:27:33;;;;;;;11.25;6.30;;;;;;;13.29;100.00;99977.09;4957710;28;20041;-79
2021/08/19 05:29:59;;;;;;;10.25;6.53;;;;;;;13.41;100.00;99987.97;4956636;29;20031;-79
2021/08/19 05:32:24;;;;;;;13.52;6.72;;;;;;;13.36;100.00;99988.13;4958403;28;20133;-79
2021/08/19 05:34:49;;;;;;;12.90;5.75;;;;;;;13.33;100.00;99983.03;4956373;28;20019;-79
2021/08/19 05:37:14;;;;;;;11.35;6.22;;;;;;;13.42;100.00;99987.88;4957607;28;20034;-79
2021/08/19 05:39:40;;;;;;;13.25;5.72;;;;;;;13.48;100.00;99995.47;4956270;28;20054;-79
2021/08/19 05:42:05;;;;;;;11.93;5.85;;;;;;;13.56;100.00;99996.00;4956613;28;20059;-79
2021/08/19 05:44:32;;;;;;;12.05;5.80;;;;;;;13.48;100.00;99995.47;4956357;29;20023;-79
2021/08/19 05:46:57;;;;;;;12.52;5.72;;;;;;;13.49;100.00;99999.78;4957098;29;20019;-79
2021/08/19 05:49:22;;;;;;;12.90;6.22;;;;;;;13.69;100.00;100005.94;4958221;28;20476;-79
2021/08/19 05:51:47;;;;;;;8.68;5.28;;;;;;;13.85;100.00;99999.19;4956775;29;20019;-79
2021/08/19 05:54:13;;;;;;;9.95;5.63;;;;;;;13.75;100.00;100010.91;4958119;28;20035;-79
2021/08/19 05:56:38;;;;;;;9.35;5.53;;;;;;;13.67;100.00;100010.38;4958603;28;20038;-79
2021/08/19 05:59:03;;;;;;;11.80;5.53;;;;;;;13.71;100.00;100006.75;4958363;28;20384;-79
2021/08/19 06:01:28;;;;;;;9.93;5.30;;;;;;;13.64;100.00;100021.78;4958389;28;20066;-79
2021/08/19 06:03:54;;;;;;;10.30;5.22;;;;;;;13.68;100.00;100023.34;4957136;28;20031;-79
2021/08/19 06:06:19;;;;;;;10.70;5.50;;;;;;;13.66;100.00;100019.94;4956048;29;20028;-79
2021/08/19 06:08:44;;;;;;;10.93;5.22;;;;;;;13.62;100.00;100025.34;4956041;28;20035;-79
2021/08/19 06:11:09;;;;;;;8.98;5.20;;;;;;;13.57;100.00;100028.97;4955784;29;20034;-79
2021/08/19 06:13:35;;;;;;;11.60;5.22;;;;;;;13.58;100.00;100025.47;4956706;28;20033;-79
2021/08/19 06:16:00;;;;;;;9.88;5.07;;;;;;;13.69;100.00;100038.06;4956499;28;20027;-79
2021/08/19 06:18:25;;;;;;;11.70;4.85;;;;;;;13.63;100.00;100034.88;4956999;28;20035;-79
2021/08/19 06:20:50;;;;;;;8.98;5.03;;;;;;;13.72;100.00;100042.31;4957077;28;20031;-79
2021/08/19 06:23:16;;;;;;;10.43;5.00;;;;;;;13.64;100.00;100045.25;4956527;29;20031;-79
2021/08/19 06:25:44;;;;;;;9.00;5.68;;;;;;;13.66;100.00;100037.34;4956330;28;20031;-79
2021/08/19 06:28:09;;;;;;;12.30;5.10;;;;;;;13.80;100.00;100041.13;4955994;28;20114;-79
2021/08/19 06:30:35;;;;;;;13.73;5.18;;;;;;;13.71;100.00;100045.84;4956262;28;20058;-79
2021/08/19 06:33:01;;;;;;;10.07;5.57;;;;;;;13.92;100.00;100034.56;4954850;29;20122;-79
2021/08/19 06:35:27;;;;;;;13.73;5.65;;;;;;;14.00;100.00;100032.47;4956470;28;20034;-79
2021/08/19 06:37:52;;;;;;;10.55;5.75;;;;;;;14.04;100.00;100036.69;4956316;28;20411;-79
2021/08/19 06:40:18;;;;;;;12.63;5.38;;;;;;;13.90;100.00;100036.38;4955903;28;20117;-79
2021/08/19 06:42:43;;;;;;;18.23;6.30;;;;;;;13.99;100.00;100035.16;4956909;28;20015;-79
2021/08/19 06:45:09;;;;;;;10.43;5.88;;;;;;;14.00;100.00;100035.06;4955296;29;20034;-79
2021/08/19 06:47:34;;;;;;;12.23;6.05;;;;;;;14.05;100.00;100042.72;4959125;28;20440;-79
2021/08/19 06:50:00;;;;;;;10.38;5.72;;;;;;;14.01;100.00;100039.41;4960951;28;20082;-79
2021/08/19 06:52:25;;;;;;;12.20;5.60;;;;;;;13.88;100.00;100038.19;4961210;29;20043;-80
2021/08/19 06:54:50;;;;;;;12.43;5.90;;;;;;;13.91;100.00;100047.66;4961855;28;20032;-79
2021/08/19 06:57:16;;;;;;;11.00;5.68;;;;;;;13.90;100.00;100040.75;4960846;29;20027;-79
2021/08/19 06:59:41;;;;;;;11.13;5.53;;;;;;;14.02;100.00;100041.09;4962189;28;20027;-80
2021/08/19 07:02:06;;;;;;;10.30;5.95;;;;;;;13.99;100.00;100048.19;4961855;29;20027;-79
2021/08/19 07:04:31;;;;;;;11.13;6.28;;;;;;;13.94;100.00;100048.38;4962721;28;20448;-80
2021/08/19 07:06:57;;;;;;;11.10;5.93;;;;;;;14.03;100.00;100048.00;4961926;28;20123;-79
2021/08/19 07:09:22;;;;;;;9.80;6.10;;;;;;;14.02;100.00;100045.47;4960752;28;20448;-79
2021/08/19 07:11:49;;;;;;;10.60;5.68;;;;;;;14.11;100.00;100050.31;4961084;28;20057;-80
2021/08/19 07:14:14;;;;;;;11.70;6.13;;;;;;;13.92;100.00;100057.19;4962073;28;20023;-80
2021/08/19 07:16:39;;;;;;;12.88;6.68;;;;;;;14.10;100.00;100053.84;4961895;28;20050;-80
2021/08/19 07:19:05;;;;;;;10.05;5.97;;;;;;;14.31;100.00;100056.44;4961285;28;20027;-79
2021/08/19 07:21:30;;;;;;;12.07;5.40;;;;;;;14.31;100.00;100051.22;4959374;29;20051;-80
2021/08/19 07:23:56;;;;;;;10.02;5.18;;;;;;;14.36;100.00;100051.91;4960397;28;20027;-79
2021/08/19 07:26:22;;;;;;;9.77;5.53;;;;;;;14.42;100.00;100060.31;4960816;28;20392;-80
2021/08/19 07:28:56;;;;;;;9.07;5.45;;;;;;;14.37;100.00;100062.25;4960154;28;20027;-79
2021/08/19 07:31:21;;;;;;;8.57;5.05;;;;;;;14.40;100.00;100056.06;4961171;28;20034;-79
2021/08/19 07:33:47;;;;;;;10.68;5.53;;;;;;;14.38;100.00;100063.13;4960300;28;20106;-79
2021/08/19 07:36:12;;;;;;;8.68;5.03;;;;;;;14.25;100.00;100062.75;4960971;28;20468;-79
2021/08/19 07:38:37;;;;;;;13.35;5.78;;;;;;;14.22;100.00;100068.09;4958760;28;20042;-79
2021/08/19 07:41:03;;;;;;;10.13;5.05;;;;;;;14.19;100.00;100065.63;4958238;29;20109;-79
2021/08/19 07:43:28;;;;;;;11.43;5.32;;;;;;;14.25;100.00;100070.59;4960546;28;20082;-79
2021/08/19 07:45:53;;;;;;;9.80;5.30;;;;;;;14.30;100.00;100073.03;4959808;28;20034;-80
2021/08/19 07:48:19;;;;;;;8.73;4.53;;;;;;;14.34;100.00;100071.97;4958813;28;20076;-80
2021/08/19 07:50:44;;;;;;;9.70;5.05;;;;;;;14.49;100.00;100074.78;4960254;28;20038;-79
2021/08/19 07:53:09;;;;;;;10.80;5.22;;;;;;;14.48;100.00;100069.66;4959338;28;20027;-80
2021/08/19 07:55:35;;;;;;;9.85;5.05;;;;;;;14.45;100.00;100069.78;4958708;29;20539;-79
2021/08/19 07:58:02;;;;;;;11.50;5.80;;;;;;;14.74;100.00;100072.00;4959724;28;20034;-79
2021/08/19 08:00:32;;;;;;;10.27;5.15;;;;;;;14.88;100.00;100079.25;4959818;28;20027;-80
2021/08/19 08:02:58;;;;;;;7.38;4.78;;;;;;;14.83;100.00;100073.38;4957981;29;20019;-80
2021/08/19 08:05:26;;;;;;;9.00;4.47;;;;;;;14.85;100.00;100073.31;4960038;28;20035;-80
2021/08/19 08:07:52;;;;;;;9.88;4.35;;;;;;;14.73;100.00;100078.16;4958666;28;20027;-80
2021/08/19 08:10:17;;;;;;;9.25;4.88;;;;;;;14.58;100.00;100076.19;4958494;29;20039;-79
2021/08/19 08:12:43;;;;;;;11.45;4.82;;;;;;;14.88;100.00;100081.88;4959995;28;20058;-79
2021/08/19 08:15:09;;;;;;;8.55;4.45;;;;;;;15.22;100.00;100075.16;4959938;28;20463;-79
2021/08/19 08:17:36;;;;;;;9.00;4.93;;;;;;;15.34;100.00;100082.44;4959528;28;20034;-79
2021/08/19 08:20:07;;;;;;;10.82;5.32;;;;;;;15.63;100.00;100082.84;4959765;28;20428;-79
2021/08/19 08:22:32;;;;;;;9.93;4.60;;;;;;;15.67;100.00;100081.84;4959583;28;20027;-79
2021/08/19 08:24:58;;;;;;;10.50;4.60;;;;;;;15.71;100.00;100080.75;4959239;28;20500;-79
2021/08/19 08:27:23;;;;;;;9.10;4.30;;;;;;;15.74;100.00;100091.06;4958007;29;20117;-79
2021/08/19 08:29:48;;;;;;;9.95;5.00;;;;;;;15.72;100.00;100086.84;4959192;28;20034;-79
2021/08/19 08:32:13;;;;;;;10.43;4.50;;;;;;;15.63;100.00;100088.91;4958982;28;20022;-79
2021/08/19 08:34:39;;;;;;;9.13;4.55;;;;;;;15.71;100.00;100096.44;4959366;28;20038;-79
2021/08/19 08:37:05;;;;;;;10.75;5.03;;;;;;;15.76;100.00;100091.81;4958657;28;20555;-79
2021/08/19 08:39:33;;;;;;;9.05;4.28;;;;;;;15.56;100.00;100100.59;4958925;28;20027;-79
2021/08/19 08:41:59;;;;;;;9.68;4.95;;;;;;;15.70;100.00;100094.75;4957371;29;20399;-79
2021/08/19 08:44:28;;;;;;;9.52;4.60;;;;;;;15.54;100.00;100102.41;4957477;29;20122;-79
2021/08/19 08:46:57;;;;;;;9.90;4.72;;;;;;;15.41;100.00;100103.91;4957307;29;20034;-79
2021/08/19 08:49:26;;;;;;;11.15;4.70;;;;;;;15.48;100.00;100110.53;4958726;28;20030;-79
2021/08/19 08:51:57;;;;;;;9.13;4.38;;;;;;;15.59;100.00;100108.28;4957062;29;20054;-79
2021/08/19 08:54:23;;;;;;;8.35;4.22;;;;;;;15.93;100.00;100100.66;4958015;29;20027;-79
2021/08/19 08:56:49;;;;;;;8.13;4.68;;;;;;;16.17;100.00;100111.72;4958445;28;20506;-79
2021/08/19 08:59:14;;;;;;;9.75;5.00;;;;;;;16.54;100.00;100111.59;4958092;28;20031;-79
2021/08/19 09:01:39;;;;;;;9.25;4.45;;;;;;;17.14;100.00;100113.78;4957068;29;20373;-79
2021/08/19 09:04:05;;;;;;;8.60;4.80;;;;;;;17.08;100.00;100116.72;4957482;29;20061;-79
2021/08/19 09:06:41;;;;;;;11.15;4.85;;;;;;;17.30;100.00;100123.47;4959105;28;20031;-79
2021/08/19 09:09:23;;;;;;;8.73;4.70;;;;;;;17.80;100.00;100112.06;4959586;28;20095;-79
2021/08/19 09:11:56;;;;;;;9.25;4.50;;;;;;;17.60;100.00;100111.31;4957281;28;20086;-79
2021/08/19 09:14:24;;;;;;;9.98;4.57;;;;;;;17.76;100.00;100110.47;4956104;28;20034;-79
2021/08/19 09:16:50;;;;;;;8.88;4.25;;;;;;;17.43;100.00;100114.88;4956054;29;20031;-79
2021/08/19 09:19:17;;;;;;;10.38;4.68;;;;;;;17.59;100.00;100119.28;4955718;28;20563;-79
2021/08/19 09:21:54;;;;;;;9.27;4.97;;;;;;;17.66;100.00;100116.22;4955502;29;20027;-79
2021/08/19 09:24:21;;;;;;;10.43;4.60;;;;;;;17.25;100.00;100121.09;4956849;28;20476;-79
2021/08/19 09:26:48;;;;;;;10.38;4.63;;;;;;;16.96;100.00;100117.38;4957085;28;20035;-79
2021/08/19 09:29:28;;;;;;;7.40;4.00;;;;;;;17.13;100.00;100119.13;4955472;28;20050;-79
2021/08/19 09:31:56;;;;;;;9.10;4.43;;;;;;;17.07;100.00;100117.66;4956892;28;20042;-79
2021/08/19 09:34:23;;;;;;;9.07;4.60;;;;;;;16.84;100.00;100116.25;4955508;29;20106;-79
2021/08/19 09:37:02;;;;;;;10.38;4.50;;;;;;;16.69;100.00;100115.22;4955541;29;20033;-79
2021/08/19 09:39:36;;;;;;;7.78;4.50;;;;;;;16.53;100.00;100116.88;4955991;28;20094;-79
2021/08/19 09:42:01;;;;;;;8.63;4.05;;;;;;;16.31;100.00;100114.50;4955488;29;20023;-79
2021/08/19 09:44:34;;;;;;;11.75;4.78;;;;;;;16.21;100.00;100121.09;4956788;28;20073;-79
2021/08/19 09:47:05;;;;;;;8.33;3.63;;;;;;;15.68;100.00;100127.97;4957041;28;20540;-79
2021/08/19 09:49:37;;;;;;;9.05;3.38;;;;;;;15.52;100.00;100119.09;4956771;28;20027;-80
2021/08/19 09:52:06;;;;;;;7.85;3.67;;;;;;;15.49;100.00;100124.47;4955535;29;20114;-79
2021/08/19 09:54:37;;;;;;;10.27;3.67;;;;;;;15.39;100.00;100124.88;4955664;29;20492;-80
2021/08/19 09:57:04;;;;;;;8.90;3.10;;;;;;;15.47;100.00;100129.75;4956447;29;20146;-79
2021/08/19 09:59:35;;;;;;;6.53;3.28;;;;;;;15.36;100.00;100130.25;4956420;28;20030;-80
2021/08/19 10:02:01;;;;;;;7.88;3.75;;;;;;;15.09;100.00;100127.09;4957397;28;20026;-80
2021/08/19 10:04:27;;;;;;;8.55;4.22;;;;;;;14.92;100.00;100134.81;4957842;28;20031;-80
2021/08/19 10:06:53;;;;;;;7.60;4.10;;;;;;;14.87;100.00;100132.41;4956409;29;20030;-80
2021/08/19 10:09:18;;;;;;;9.73;4.90;;;;;;;14.83;100.00;100136.03;4957390;28;20118;-80
2021/08/19 10:11:47;;;;;;;8.50;4.63;;;;;;;14.81;100.00;100127.44;4955681;29;20043;-80
2021/08/19 10:14:15;;;;;;;9.43;4.93;;;;;;;14.66;100.00;100138.53;4957691;28;20376;-80
2021/08/19 10:16:40;;;;;;;10.55;4.70;;;;;;;14.70;100.00;100132.25;4957540;28;20030;-80
2021/08/19 10:19:10;;;;;;;10.15;5.18;;;;;;;14.64;100.00;100127.28;4955692;28;20551;-80
2021/08/19 10:21:40;;;;;;;15.43;5.45;;;;;;;14.61;100.00;100132.63;4955394;28;20114;-80
2021/08/19 10:24:08;;;;;;;9.45;5.80;;;;;;;14.93;100.00;100129.53;4955718;29;20023;-80
2021/08/19 10:26:33;;;;;;;9.43;5.18;;;;;;;15.27;100.00;100128.06;4957650;28;20034;-79
2021/08/19 10:29:00;;;;;;;10.10;5.95;;;;;;;15.29;100.00;100130.59;4957278;28;20031;-80
2021/08/19 10:31:34;;;;;;;9.90;5.32;;;;;;;15.25;100.00;100129.88;4957186;28;20091;-80
2021/08/19 10:33:59;;;;;;;;;;;;;;;15.14;100.00;100119.03;4957412;28;20063;-79
2021/08/19 10:36:28;;;;;;;9.37;5.00;;;;;;;15.11;100.00;100127.84;4955783;28;19910;-80
2021/08/19 10:39:19;;;;;;;10.02;5.70;;;;;;;15.09;100.00;100126.25;4955691;28;20114;-79
2021/08/19 10:41:44;;;;;;;10.60;5.65;;;;;;;15.12;100.00;100128.72;4956640;28;20031;-79
2021/08/19 10:44:11;;;;;;;9.18;5.32;;;;;;;15.02;100.00;100130.03;4955901;29;20038;-80
2021/08/19 10:46:40;;;;;;;9.13;4.75;;;;;;;15.06;100.00;100126.38;4955895;29;20030;-80
2021/08/19 10:49:06;;;;;;;9.65;5.88;;;;;;;14.91;100.00;100136.56;4956839;28;20086;-80
2021/08/19 10:51:32;;;;;;;10.27;5.60;;;;;;;14.87;100.00;100129.78;4956810;28;20484;-79
2021/08/19 10:53:57;;;;;;;8.90;5.45;;;;;;;15.05;100.00;100124.66;4955909;29;20096;-80
2021/08/19 10:56:44;;;;;;;9.07;4.90;;;;;;;15.56;100.00;100124.09;4956553;28;20046;-80
2021/08/19 10:59:32;;;;;;;10.68;5.32;;;;;;;15.60;100.00;100125.66;4979060;22;20051;-84
2021/08/19 11:02:00;;;;;;;10.82;5.07;;;;;;;15.44;100.00;100135.13;4953701;29;20024;-84
2021/08/19 11:04:46;;;;;;;9.98;5.30;;;;;;;15.40;100.00;100130.97;4954335;29;20036;-83
2021/08/19 11:07:47;;;;;;;9.38;5.43;;;;;;;15.45;100.00;100126.34;4953648;29;20034;-83
2021/08/19 11:10:36;;;;;;;10.48;5.53;;;;;;;15.52;100.00;100121.72;4953744;28;20031;-83
2021/08/19 11:13:05;;;;;;;7.63;4.55;;;;;;;15.90;100.00;100121.72;4953896;29;20191;-83
2021/08/19 11:15:31;;;;;;;7.47;4.07;;;;;;;16.91;100.00;100120.25;4953532;29;20496;-83